Time;durP1;ratioP1;P1;durP2;ratioP2;P2;SDS_P1;SDS_P2;PMS_P1;PMS_P2;Temp;Humidity;BMP_temperature;BMP_pressure;BME280_temperature;BME280_humidity;BME280_pressure;Samples;Min_cycle;Max_cycle;Signal;HPM_P1;HPM_P2
2021/06/06 12:33:37;;;;;;;9.52;3.40;;;30.00;55.40;;;;;;5127781;27;20756;-86
2021/06/06 12:36:37;;;;;;;6.28;2.70;;;29.40;55.90;;;;;;5110371;28;20020;-83
2021/06/06 12:39:05;;;;;;;10.50;5.10;;;30.00;53.50;;;;;;5110120;28;20024;-81
2021/06/06 12:41:39;;;;;;;8.85;3.42;;;29.20;55.40;;;;;;5093268;28;20530;-82
2021/06/06 12:44:39;;;;;;;3.78;2.85;;;30.20;53.70;;;;;;5109637;28;20036;-86
2021/06/06 12:47:23;;;;;;;7.05;2.75;;;30.90;53.40;;;;;;5114140;28;20027;-84
2021/06/06 12:50:14;;;;;;;;;;;;;;;;;;;;;
2021/06/06 12:52:56;;;;;;;8.25;3.03;;;30.90;50.20;;;;;;5111461;28;20024;-87
2021/06/06 12:56:15;;;;;;;9.88;4.13;;;31.90;49.50;;;;;;5109919;28;20027;-83
2021/06/06 12:58:49;;;;;;;7.07;2.95;;;32.20;46.00;;;;;;5107512;28;20039;-82
2021/06/06 13:01:31;;;;;;;6.28;3.30;;;31.10;49.10;;;;;;5110482;28;20026;-78
2021/06/06 13:04:27;;;;;;;6.07;2.72;;;30.50;49.40;;;;;;5108975;28;20445;-78
2021/06/06 13:06:57;;;;;;;7.95;2.70;;;30.60;50.10;;;;;;5109222;28;20015;-76
2021/06/06 13:09:30;;;;;;;7.40;3.00;;;29.90;50.20;;;;;;5108083;28;20158;-76
2021/06/06 13:12:15;;;;;;;4.38;2.75;;;31.10;49.50;;;;;;5110005;28;20084;-77
2021/06/06 13:15:17;;;;;;;5.10;2.47;;;30.00;48.10;;;;;;5087933;28;20058;-78
2021/06/06 13:17:53;;;;;;;7.18;2.75;;;31.40;48.10;;;;;;5109157;28;20026;-78
2021/06/06 13:20:22;;;;;;;7.63;2.50;;;31.20;47.90;;;;;;5110163;28;20016;-75
2021/06/06 13:23:01;;;;;;;5.07;2.47;;;31.80;46.70;;;;;;5091101;28;20371;-79
2021/06/06 13:25:49;;;;;;;4.57;2.40;;;31.80;46.40;;;;;;5088354;28;20085;-78
2021/06/06 13:28:29;;;;;;;14.38;2.63;;;32.10;45.40;;;;;;5105134;28;20060;-79
2021/06/06 13:31:08;;;;;;;6.68;2.45;;;31.70;44.20;;;;;;5089718;28;20434;-81
2021/06/06 13:33:48;;;;;;;6.35;2.78;;;31.90;45.10;;;;;;5071137;28;20048;-81
2021/06/06 13:36:18;;;;;;;6.80;3.05;;;29.80;47.10;;;;;;5086417;28;20024;-79
2021/06/06 13:38:54;;;;;;;5.28;3.90;;;29.10;48.40;;;;;;5089483;28;20031;-79
2021/06/06 13:41:25;;;;;;;6.28;2.80;;;28.60;50.10;;;;;;5105120;28;20021;-80
2021/06/06 13:44:02;;;;;;;11.13;4.20;;;28.40;50.60;;;;;;5081914;28;20446;-79
2021/06/06 13:46:30;;;;;;;6.55;2.40;;;29.60;48.80;;;;;;5076006;28;20462;-89
2021/06/06 13:48:56;;;;;;;6.03;2.85;;;29.60;47.20;;;;;;5075215;28;20056;-88
2021/06/06 13:51:24;;;;;;;6.53;2.72;;;29.20;47.10;;;;;;5057787;28;20118;-85
2021/06/06 13:53:50;;;;;;;6.90;3.05;;;28.10;48.80;;;;;;5041258;28;20077;-83
2021/06/06 13:56:31;;;;;;;8.73;3.10;;;26.60;51.40;;;;;;5074526;28;20466;-86
2021/06/06 13:59:06;;;;;;;9.48;2.80;;;26.00;51.90;;;;;;5080656;28;20031;-84
2021/06/06 14:01:35;;;;;;;8.77;3.35;;;25.20;53.10;;;;;;5095677;28;20028;-87
2021/06/06 14:04:02;;;;;;;4.90;2.53;;;25.00;54.10;;;;;;5095210;28;20044;-84
2021/06/06 14:06:28;;;;;;;3.40;2.65;;;24.80;54.70;;;;;;5095357;28;20032;-86
2021/06/06 14:08:53;;;;;;;5.72;2.40;;;24.30;54.40;;;;;;5094602;28;20393;-84
2021/06/06 14:11:27;;;;;;;7.47;2.70;;;24.30;54.40;;;;;;5094263;28;20426;-85
2021/06/06 14:13:56;;;;;;;6.57;4.13;;;23.40;55.10;;;;;;5077409;28;20032;-83
2021/06/06 14:16:31;;;;;;;6.90;4.07;;;23.20;56.60;;;;;;5096019;28;20028;-84
2021/06/06 14:19:03;;;;;;;9.80;3.33;;;23.20;57.30;;;;;;5095880;28;20039;-82
2021/06/06 14:21:35;;;;;;;7.00;3.13;;;22.80;58.60;;;;;;5096019;28;20157;-86
2021/06/06 14:24:22;;;;;;;6.00;3.10;;;22.80;58.90;;;;;;5094065;28;20433;-85
2021/06/06 14:26:54;;;;;;;6.18;3.03;;;22.40;59.30;;;;;;5094133;28;20400;-85
2021/06/06 14:29:31;;;;;;;4.53;2.50;;;22.30;59.80;;;;;;5094254;28;20106;-86
2021/06/06 14:31:59;;;;;;;6.20;2.88;;;22.30;59.90;;;;;;5062152;28;20493;-83
2021/06/06 14:34:27;;;;;;;7.43;5.97;;;22.00;61.20;;;;;;5094331;28;20101;-83
2021/06/06 14:36:58;;;;;;;5.93;2.80;;;21.90;62.30;;;;;;5095188;28;20016;-82
2021/06/06 14:39:24;;;;;;;5.07;2.97;;;21.80;62.80;;;;;;5095258;28;20421;-84
2021/06/06 14:41:52;;;;;;;5.22;2.67;;;21.70;63.40;;;;;;5093948;28;20111;-85
2021/06/06 14:44:24;;;;;;;6.82;3.15;;;21.70;63.90;;;;;;5075227;28;20042;-86
2021/06/06 14:46:57;;;;;;;6.53;3.10;;;21.50;64.50;;;;;;5074957;28;20046;-85
2021/06/06 14:49:33;;;;;;;6.70;3.10;;;21.40;65.20;;;;;;5073564;28;20500;-86
2021/06/06 14:52:04;;;;;;;75.00;28.83;;;21.30;66.20;;;;;;5073578;28;20078;-88
2021/06/06 14:54:35;;;;;;;13.77;8.63;;;21.20;67.00;;;;;;5072823;28;20115;-83
2021/06/06 14:57:06;;;;;;;16.10;8.23;;;21.10;67.60;;;;;;5056612;28;20078;-82
2021/06/06 14:59:49;;;;;;;13.40;6.10;;;21.10;67.70;;;;;;5074431;28;20028;-82
2021/06/06 15:02:14;;;;;;;8.50;4.28;;;21.00;67.80;;;;;;5057337;28;20032;-83
2021/06/06 15:04:45;;;;;;;5.55;2.95;;;20.90;68.40;;;;;;5073054;28;20020;-81
2021/06/06 15:07:11;;;;;;;4.45;2.95;;;21.00;68.50;;;;;;5074940;28;20028;-81
2021/06/06 15:09:50;;;;;;;4.07;3.20;;;21.00;68.50;;;;;;5056554;28;20816;-81
2021/06/06 15:12:21;;;;;;;6.28;3.67;;;21.00;68.90;;;;;;5057466;28;20466;-82
2021/06/06 15:14:48;;;;;;;8.48;3.20;;;21.10;68.80;;;;;;5057308;28;20029;-81
2021/06/06 15:17:23;;;;;;;;;;;;;;;;;;;;;
2021/06/06 15:19:52;;;;;;;20.20;13.27;;;21.10;69.40;;;;;;5074714;28;20024;-81
2021/06/06 15:22:26;;;;;;;9.50;5.38;;;21.10;69.90;;;;;;5072881;28;20128;-81
2021/06/06 15:24:59;;;;;;;13.65;10.20;;;21.10;70.00;;;;;;5089458;28;20037;-82
2021/06/06 15:27:48;;;;;;;10.82;7.45;;;21.20;70.20;;;;;;5073719;28;20043;-81
2021/06/06 15:30:22;;;;;;;8.43;5.85;;;20.90;71.40;;;;;;5074338;28;20063;-81
2021/06/06 15:33:07;;;;;;;11.32;3.75;;;20.90;72.10;;;;;;5072113;28;20056;-81
2021/06/06 15:35:43;;;;;;;9.52;2.95;;;21.00;72.10;;;;;;5089779;28;20080;-81
2021/06/06 15:38:12;;;;;;;6.55;2.80;;;21.00;72.30;;;;;;5074051;28;20485;-81
2021/06/06 15:40:44;;;;;;;9.05;3.30;;;21.20;72.00;;;;;;5089595;28;20039;-81
2021/06/06 15:43:15;;;;;;;5.18;3.30;;;21.30;72.00;;;;;;5073746;28;20071;-80
2021/06/06 15:46:02;;;;;;;7.03;3.35;;;21.40;71.20;;;;;;5092448;28;20557;-81
2021/06/06 15:48:30;;;;;;;4.80;3.60;;;21.60;71.40;;;;;;5092944;28;20115;-80
2021/06/06 15:50:56;;;;;;;6.55;3.10;;;21.70;71.40;;;;;;5094241;28;20024;-81
2021/06/06 15:53:25;;;;;;;5.93;3.10;;;21.70;71.80;;;;;;5092881;28;20028;-81
2021/06/06 15:56:25;;;;;;;6.40;3.50;;;21.80;71.20;;;;;;5095149;28;20040;-81
2021/06/06 15:58:54;;;;;;;5.40;3.13;;;21.80;70.60;;;;;;5091300;28;20385;-80
2021/06/06 16:01:28;;;;;;;6.38;3.00;;;21.80;71.00;;;;;;5092694;28;20035;-81
2021/06/06 16:03:54;;;;;;;8.90;3.22;;;21.70;70.50;;;;;;5092858;28;20484;-82
2021/06/06 16:06:23;;;;;;;6.65;3.13;;;21.60;71.40;;;;;;5092575;28;20024;-81
2021/06/06 16:08:49;;;;;;;5.43;3.28;;;21.60;71.80;;;;;;5093660;28;20085;-80
2021/06/06 16:11:18;;;;;;;5.45;3.10;;;21.60;71.70;;;;;;5075655;28;20107;-81
2021/06/06 16:13:44;;;;;;;3.70;2.70;;;21.70;71.70;;;;;;5092590;28;20039;-82
2021/06/06 16:16:12;;;;;;;10.77;3.60;;;21.60;71.40;;;;;;5062330;28;20032;-82
2021/06/06 16:18:44;;;;;;;5.82;3.50;;;21.70;72.30;;;;;;5073643;28;20154;-81
2021/06/06 16:21:15;;;;;;;4.95;3.00;;;21.70;71.80;;;;;;5072285;28;20021;-80
2021/06/06 16:23:44;;;;;;;6.70;4.00;;;21.70;71.70;;;;;;5072384;28;20123;-82
2021/06/06 16:26:13;;;;;;;3.88;3.28;;;21.60;72.10;;;;;;5073950;28;20374;-82
2021/06/06 16:28:41;;;;;;;14.52;9.90;;;21.60;72.20;;;;;;5072575;28;20029;-80
2021/06/06 16:31:11;;;;;;;6.68;3.20;;;21.60;72.40;;;;;;5073831;28;20029;-81
2021/06/06 16:33:38;;;;;;;8.13;3.25;;;21.20;72.40;;;;;;5072164;28;20428;-80
2021/06/06 16:36:04;;;;;;;6.45;3.08;;;21.00;73.30;;;;;;5073445;28;20104;-78
2021/06/06 16:38:30;;;;;;;8.73;3.50;;;20.90;73.40;;;;;;5072226;28;20042;-78
2021/06/06 16:40:55;;;;;;;6.50;3.20;;;20.80;73.70;;;;;;5073418;28;20023;-78
2021/06/06 16:43:37;;;;;;;5.85;2.95;;;20.80;74.30;;;;;;5073438;28;20031;-78
2021/06/06 16:46:11;;;;;;;4.95;3.10;;;20.70;74.90;;;;;;5073328;28;20039;-79
2021/06/06 16:48:42;;;;;;;4.05;3.28;;;20.60;75.60;;;;;;5055176;28;20033;-78
2021/06/06 16:51:09;;;;;;;8.77;3.95;;;20.50;75.60;;;;;;5055727;28;20051;-77
2021/06/06 16:53:43;;;;;;;5.05;3.63;;;20.40;76.50;;;;;;5071541;28;20155;-77
2021/06/06 16:56:11;;;;;;;7.03;3.40;;;20.40;76.40;;;;;;5071784;28;20016;-78
2021/06/06 16:58:45;;;;;;;7.93;3.80;;;20.30;76.80;;;;;;5072551;28;20052;-77
2021/06/06 17:01:20;;;;;;;5.70;3.42;;;20.20;77.00;;;;;;5072376;28;20025;-77
2021/06/06 17:03:52;;;;;;;6.65;3.70;;;20.20;77.40;;;;;;5072466;28;20046;-77
2021/06/06 17:06:18;;;;;;;7.47;3.45;;;20.10;78.80;;;;;;5072633;28;20056;-77
2021/06/06 17:08:48;;;;;;;5.82;3.25;;;20.10;78.50;;;;;;5072141;28;20056;-77
2021/06/06 17:11:17;;;;;;;10.10;3.80;;;20.00;78.50;;;;;;5071779;28;20052;-76
2021/06/06 17:13:47;;;;;;;11.20;3.85;;;19.90;78.90;;;;;;5068849;28;20024;-78
2021/06/06 17:16:20;;;;;;;5.95;3.40;;;19.90;79.40;;;;;;5091616;28;20512;-78
2021/06/06 17:18:46;;;;;;;5.28;3.10;;;19.80;79.70;;;;;;5094090;28;20729;-78
2021/06/06 17:21:15;;;;;;;7.30;3.70;;;19.90;79.20;;;;;;5095494;28;20020;-79
2021/06/06 17:23:44;;;;;;;6.00;3.45;;;19.90;79.80;;;;;;5095574;28;20043;-78
2021/06/06 17:26:16;;;;;;;10.18;3.33;;;19.90;79.80;;;;;;5095657;28;20027;-78
2021/06/06 17:28:43;;;;;;;5.70;3.20;;;19.90;80.10;;;;;;5095614;28;20519;-79
2021/06/06 17:31:12;;;;;;;6.07;3.03;;;19.90;79.70;;;;;;5093948;28;20032;-78
2021/06/06 17:33:38;;;;;;;5.97;2.83;;;19.90;79.90;;;;;;5076640;28;20038;-78
2021/06/06 17:36:10;;;;;;;4.97;3.08;;;19.90;79.90;;;;;;5075152;28;20369;-79
2021/06/06 17:38:38;;;;;;;4.70;3.13;;;19.80;80.30;;;;;;5077163;28;20029;-78
2021/06/06 17:41:07;;;;;;;4.30;3.22;;;19.80;80.30;;;;;;5074887;28;20039;-78
2021/06/06 17:43:38;;;;;;;4.75;3.33;;;19.80;81.00;;;;;;5074746;28;20028;-79
2021/06/06 17:46:09;;;;;;;3.42;2.88;;;19.80;81.30;;;;;;5075589;28;20024;-78
2021/06/06 17:48:38;;;;;;;5.90;3.78;;;19.80;80.90;;;;;;5075705;28;20054;-78
2021/06/06 17:51:11;;;;;;;11.35;5.60;;;19.70;81.10;;;;;;5075596;28;20016;-78
2021/06/06 17:53:40;;;;;;;14.18;6.78;;;19.80;81.10;;;;;;5058127;28;20554;-80
2021/06/06 17:56:08;;;;;;;11.55;7.10;;;19.80;81.20;;;;;;5074172;28;20115;-80
2021/06/06 17:58:49;;;;;;;11.68;7.60;;;19.80;81.30;;;;;;5074465;28;20053;-80
2021/06/06 18:01:20;;;;;;;9.32;6.75;;;19.80;81.70;;;;;;5074183;28;20550;-79
2021/06/06 18:03:56;;;;;;;10.55;6.53;;;19.80;81.80;;;;;;5075023;28;21340;-80
2021/06/06 18:06:28;;;;;;;8.27;5.75;;;19.80;82.10;;;;;;5075469;28;20528;-80
2021/06/06 18:08:58;;;;;;;14.93;5.00;;;19.80;82.10;;;;;;5075537;28;20373;-80
2021/06/06 18:11:33;;;;;;;8.70;4.90;;;19.70;82.70;;;;;;5073894;28;20112;-81
2021/06/06 18:14:08;;;;;;;5.97;4.53;;;19.60;83.70;;;;;;5083427;28;20074;-81
2021/06/06 18:16:35;;;;;;;7.18;4.07;;;19.50;83.60;;;;;;5074517;28;20048;-79
2021/06/06 18:19:08;;;;;;;4.93;3.83;;;19.50;83.40;;;;;;5074203;28;20060;-78
2021/06/06 18:21:58;;;;;;;5.07;4.00;;;19.50;83.20;;;;;;5074066;28;20024;-78
2021/06/06 18:24:40;;;;;;;32.78;20.98;;;19.40;83.60;;;;;;5073890;28;20025;-79
2021/06/06 18:27:16;;;;;;;13.85;9.68;;;19.30;83.90;;;;;;5074435;28;20036;-80
2021/06/06 18:29:46;;;;;;;14.80;11.15;;;19.20;84.70;;;;;;5076713;28;20028;-81
2021/06/06 18:32:13;;;;;;;35.85;23.25;;;19.20;85.10;;;;;;5073419;28;20056;-84
2021/06/06 18:34:40;;;;;;;32.58;25.27;;;19.20;85.70;;;;;;5074365;28;20047;-84
2021/06/06 18:37:09;;;;;;;15.60;10.18;;;19.10;85.50;;;;;;5056882;28;20482;-85
2021/06/06 18:39:34;;;;;;;12.15;7.63;;;19.10;86.10;;;;;;5057201;28;20425;-84
2021/06/06 18:42:03;;;;;;;10.68;7.20;;;19.20;85.70;;;;;;5074801;28;20054;-83
2021/06/06 18:44:37;;;;;;;10.57;6.75;;;19.20;86.00;;;;;;5073383;28;20040;-81
2021/06/06 18:47:08;;;;;;;7.90;5.63;;;19.10;86.00;;;;;;5056608;28;20032;-81
2021/06/06 18:49:37;;;;;;;11.50;5.85;;;19.20;85.90;;;;;;5073898;28;20020;-80
2021/06/06 18:52:06;;;;;;;6.97;5.68;;;19.10;86.30;;;;;;5073564;28;20075;-81
2021/06/06 18:54:35;;;;;;;9.02;6.22;;;19.00;87.10;;;;;;5073567;28;20017;-81
2021/06/06 18:57:04;;;;;;;10.80;7.03;;;18.90;87.80;;;;;;5074191;28;20029;-80
2021/06/06 18:59:30;;;;;;;11.13;8.10;;;18.80;87.70;;;;;;5073779;28;20078;-84
2021/06/06 19:01:56;;;;;;;10.82;8.02;;;18.80;88.10;;;;;;5074703;28;20028;-81
2021/06/06 19:07:09;;;;;;;10.07;7.20;;;18.80;88.10;;;;;;5070712;28;20032;-83
2021/06/06 19:09:36;;;;;;;8.93;6.07;;;18.80;88.80;;;;;;5056990;28;20044;-83
2021/06/06 19:12:03;;;;;;;7.88;5.70;;;18.80;88.30;;;;;;5083504;28;20052;-83
2021/06/06 19:14:30;;;;;;;7.45;5.80;;;18.80;88.20;;;;;;5073038;28;20424;-83
2021/06/06 19:17:06;;;;;;;9.77;5.28;;;18.80;88.20;;;;;;5074476;28;20070;-83
2021/06/06 19:19:34;;;;;;;21.45;12.52;;;18.80;88.00;;;;;;5074255;28;20168;-82
2021/06/06 19:22:05;;;;;;;18.35;10.50;;;18.80;88.50;;;;;;5074021;28;20020;-86
2021/06/06 19:24:31;;;;;;;21.67;12.00;;;18.70;88.40;;;;;;5073036;28;20538;-83
2021/06/06 19:27:01;;;;;;;37.00;16.70;;;18.60;88.60;;;;;;5072902;28;20128;-85
2021/06/06 19:29:32;;;;;;;39.60;20.50;;;18.60;88.60;;;;;;5073276;28;20028;-85
2021/06/06 19:32:04;;;;;;;50.00;25.88;;;18.50;88.80;;;;;;5074949;28;20059;-86
2021/06/06 19:34:30;;;;;;;46.97;25.23;;;18.50;89.40;;;;;;5074468;28;20030;-83
2021/06/06 19:37:00;;;;;;;54.33;28.60;;;18.40;89.90;;;;;;5073052;28;20025;-84
2021/06/06 19:39:26;;;;;;;58.85;31.52;;;18.30;90.00;;;;;;5074868;28;20476;-88
2021/06/06 19:41:57;;;;;;;63.58;31.65;;;18.20;90.10;;;;;;5073517;28;20114;-89
2021/06/06 19:44:22;;;;;;;;;;;18.20;90.30;;;;;;5074159;28;20029;-85
2021/06/06 19:46:51;;;;;;;50.72;28.25;;;18.10;90.70;;;;;;5074876;28;19912;-89
2021/06/06 19:49:17;;;;;;;44.67;25.92;;;18.10;90.30;;;;;;5057391;28;20475;-83
2021/06/06 19:51:45;;;;;;;48.47;28.85;;;18.10;90.40;;;;;;5074022;28;20038;-85
2021/06/06 19:54:17;;;;;;;38.97;24.85;;;18.20;90.60;;;;;;5073018;28;20034;-85
2021/06/06 19:56:46;;;;;;;29.25;18.58;;;18.10;90.70;;;;;;5073236;28;20025;-88
2021/06/06 19:59:15;;;;;;;33.53;21.08;;;18.20;90.60;;;;;;5073073;28;20033;-86
2021/06/06 20:01:41;;;;;;;33.78;21.15;;;18.20;90.50;;;;;;5072620;28;20065;-85
2021/06/06 20:04:09;;;;;;;32.80;19.23;;;18.20;90.50;;;;;;5074641;28;20087;-87
2021/06/06 20:06:40;;;;;;;31.85;20.00;;;18.20;90.50;;;;;;5074177;28;20428;-86
2021/06/06 20:09:13;;;;;;;30.15;18.17;;;18.20;90.60;;;;;;5073456;28;20548;-86
2021/06/06 20:11:44;;;;;;;27.80;16.85;;;18.20;90.80;;;;;;5074896;28;20047;-92
2021/06/06 20:14:16;;;;;;;24.02;16.75;;;18.20;90.90;;;;;;5090504;28;20013;-90
2021/06/06 20:16:43;;;;;;;19.65;12.13;;;18.10;91.00;;;;;;5074111;28;20032;-94
2021/06/06 20:19:11;;;;;;;11.52;7.10;;;18.00;91.10;;;;;;5073919;28;20074;-91
2021/06/06 20:21:41;;;;;;;9.85;5.80;;;17.90;91.00;;;;;;5076969;28;20165;-91
2021/06/06 20:24:14;;;;;;;10.27;5.65;;;17.70;91.30;;;;;;5094938;28;20024;-92
2021/06/06 20:26:40;;;;;;;10.82;4.82;;;17.50;91.50;;;;;;5077154;28;20017;-91
2021/06/06 20:29:09;;;;;;;7.80;5.10;;;17.30;91.80;;;;;;5093867;28;20458;-91
2021/06/06 20:31:42;;;;;;;6.10;4.30;;;17.30;91.90;;;;;;5094519;28;20094;-91
2021/06/06 20:36:49;;;;;;;8.82;4.68;;;17.40;91.90;;;;;;5094881;28;20110;-91
2021/06/06 20:39:19;;;;;;;;;;;17.50;91.60;;;;;;5093953;28;20032;-91
2021/06/06 20:41:47;;;;;;;7.57;3.58;;;17.60;91.60;;;;;;5094812;28;19908;-91
2021/06/06 20:44:15;;;;;;;7.50;4.07;;;17.60;91.40;;;;;;5093297;28;20027;-91
2021/06/06 20:46:42;;;;;;;6.55;4.70;;;17.70;91.40;;;;;;5093461;28;20374;-91
2021/06/06 20:49:10;;;;;;;8.32;3.92;;;17.70;91.60;;;;;;5076792;28;20126;-91
2021/06/06 20:51:37;;;;;;;5.20;3.78;;;17.70;91.60;;;;;;5093198;28;20536;-92
2021/06/06 20:54:04;;;;;;;5.65;4.05;;;17.70;91.50;;;;;;5095070;28;20377;-92
2021/06/06 20:56:30;;;;;;;4.28;3.70;;;17.70;91.30;;;;;;5097427;28;20027;-91
2021/06/06 20:59:04;;;;;;;5.75;3.75;;;17.70;91.00;;;;;;5097107;28;20029;-92
2021/06/06 21:01:34;;;;;;;5.65;4.00;;;17.60;90.80;;;;;;5097134;28;20026;-91
2021/06/06 21:04:02;;;;;;;;;;;17.60;90.70;;;;;;5097696;28;20101;-92
2021/06/06 21:06:36;;;;;;;5.15;3.75;;;17.60;90.60;;;;;;5097268;28;20272;-92
2021/06/06 21:09:10;;;;;;;6.03;3.80;;;17.60;90.50;;;;;;5097471;28;20032;-92
2021/06/06 21:11:39;;;;;;;6.05;3.50;;;17.60;90.70;;;;;;5080871;28;20028;-90
2021/06/06 21:14:07;;;;;;;10.18;3.78;;;17.60;90.80;;;;;;5096949;28;20465;-91
2021/06/06 21:16:33;;;;;;;8.60;4.22;;;17.60;91.00;;;;;;5096984;28;20028;-92
2021/06/06 21:19:03;;;;;;;6.82;3.88;;;17.60;91.20;;;;;;5097008;28;20150;-92
2021/06/06 21:21:32;;;;;;;5.28;3.80;;;17.50;91.60;;;;;;5096804;28;20473;-88
2021/06/06 21:24:05;;;;;;;6.35;3.80;;;17.50;91.90;;;;;;5096829;28;20032;-91
2021/06/06 21:26:40;;;;;;;5.45;3.67;;;17.60;92.00;;;;;;5097021;28;20023;-92
2021/06/06 21:29:14;;;;;;;8.20;4.00;;;17.60;92.00;;;;;;5098080;28;20480;-92
2021/06/06 21:31:50;;;;;;;8.23;4.05;;;17.60;92.60;;;;;;5096251;28;20151;-93
2021/06/06 21:34:16;;;;;;;4.70;3.78;;;17.60;92.70;;;;;;5096585;28;20070;-91
2021/06/06 21:36:44;;;;;;;6.05;3.78;;;17.50;92.50;;;;;;5097715;28;20032;-92
2021/06/06 21:39:21;;;;;;;6.05;3.33;;;17.50;92.70;;;;;;5097660;28;20026;-90
2021/06/06 21:41:58;;;;;;;4.35;3.40;;;17.50;92.90;;;;;;5096604;28;20115;-91
2021/06/06 21:44:25;;;;;;;6.93;3.97;;;17.50;93.30;;;;;;5096707;28;20056;-91
2021/06/06 21:46:54;;;;;;;3.40;3.00;;;17.40;93.40;;;;;;5097573;28;20039;-91
2021/06/06 21:49:21;;;;;;;5.90;3.60;;;17.40;93.20;;;;;;5096341;28;20031;-90
2021/06/06 21:51:48;;;;;;;5.88;3.60;;;17.40;93.20;;;;;;5079616;28;20028;-90
2021/06/06 21:54:15;;;;;;;4.43;3.47;;;17.40;93.20;;;;;;5079672;28;20435;-90
2021/06/06 21:56:45;;;;;;;6.47;4.60;;;17.40;93.10;;;;;;5096135;28;20024;-91
2021/06/06 21:59:11;;;;;;;7.05;3.90;;;17.30;93.50;;;;;;5096289;28;20039;-90
2021/06/06 22:01:41;;;;;;;4.97;4.13;;;17.30;93.30;;;;;;5097454;28;20473;-91
2021/06/06 22:04:07;;;;;;;3.95;3.47;;;17.20;93.50;;;;;;5079115;28;20028;-90
2021/06/06 22:06:36;;;;;;;3.95;3.50;;;17.20;93.40;;;;;;5096159;28;20047;-91
2021/06/06 22:09:09;;;;;;;4.50;3.50;;;17.20;93.30;;;;;;5079304;28;20233;-91
2021/06/06 22:11:35;;;;;;;4.60;3.53;;;17.20;93.30;;;;;;5095891;28;20028;-91
2021/06/06 22:14:01;;;;;;;3.92;3.50;;;17.20;93.30;;;;;;5078996;28;20472;-91
2021/06/06 22:16:27;;;;;;;3.90;3.50;;;17.20;93.30;;;;;;5079093;28;20031;-95
2021/06/06 22:18:56;;;;;;;6.22;4.20;;;17.20;93.30;;;;;;5095844;28;20024;-94
2021/06/06 22:22:00;;;;;;;4.15;3.50;;;17.20;93.40;;;;;;5095640;28;20019;-94
2021/06/06 22:25:05;;;;;;;7.55;3.60;;;17.20;93.40;;;;;;5095800;28;20020;-94
2021/06/06 22:28:08;;;;;;;4.50;3.35;;;17.20;93.60;;;;;;5096508;28;20024;-96
2021/06/06 22:31:11;;;;;;;5.63;3.40;;;17.20;93.30;;;;;;5096528;28;20032;-94
2021/06/06 22:34:15;;;;;;;4.43;2.97;;;17.20;93.50;;;;;;5096882;28;20051;-96
2021/06/06 22:37:19;;;;;;;4.25;3.30;;;17.10;93.20;;;;;;5108233;28;20067;-96
2021/06/06 22:40:25;;;;;;;4.68;3.10;;;17.00;93.40;;;;;;5106150;28;20039;-96
2021/06/06 22:43:29;;;;;;;3.63;2.92;;;17.00;93.10;;;;;;5105363;28;20032;-96
2021/06/06 22:46:33;;;;;;;5.57;3.45;;;17.00;93.30;;;;;;5099314;28;20028;-96
2021/06/06 22:49:36;;;;;;;4.15;3.50;;;16.90;93.30;;;;;;5097063;28;20024;-96
2021/06/06 22:59:26;;;;;;;5.22;3.38;;;16.80;94.00;;;;;;5100595;28;20027;-96
2021/06/06 23:02:32;;;;;;;5.10;3.05;;;16.80;93.70;;;;;;5099773;28;20384;-96
2021/06/06 23:05:35;;;;;;;4.43;3.70;;;16.80;94.20;;;;;;5096304;28;20039;-96
2021/06/06 23:08:42;;;;;;;4.50;3.28;;;16.80;93.90;;;;;;5096730;28;20063;-96
2021/06/06 23:11:47;;;;;;;7.70;3.17;;;16.80;94.10;;;;;;5096866;28;20031;-96
2021/06/06 23:14:29;;;;;;;3.30;3.00;;;16.90;94.30;;;;;;5095660;28;20115;-96
2021/06/06 23:17:28;;;;;;;5.07;3.20;;;16.90;93.90;;;;;;5094580;28;20035;-96
2021/06/06 23:19:54;;;;;;;3.85;2.92;;;16.90;94.00;;;;;;5095500;28;20074;-96
2021/06/06 23:22:25;;;;;;;5.03;3.33;;;17.00;94.00;;;;;;5097572;28;20020;-96
2021/06/06 23:25:11;;;;;;;4.60;4.00;;;17.00;94.00;;;;;;5101436;28;20020;-96
2021/06/06 23:27:38;;;;;;;5.18;3.10;;;16.90;94.00;;;;;;5099719;28;20021;-96
2021/06/06 23:30:19;;;;;;;5.20;3.40;;;16.90;94.00;;;;;;5101821;28;20051;-96
2021/06/06 23:33:07;;;;;;;;;;;;;;;;;;;;;
2021/06/06 23:35:35;;;;;;;8.68;3.17;;;16.90;94.00;;;;;;5099460;28;20420;-96
2021/06/06 23:38:10;;;;;;;4.47;3.38;;;17.00;94.00;;;;;;5081484;28;20465;-96
2021/06/06 23:40:39;;;;;;;3.45;3.05;;;17.00;94.00;;;;;;5081861;28;20028;-96
2021/06/06 23:43:04;;;;;;;3.70;3.10;;;17.00;93.80;;;;;;5098883;28;20051;-96
2021/06/06 23:45:31;;;;;;;3.10;2.80;;;17.10;93.70;;;;;;5101826;28;20028;-96
2021/06/06 23:48:00;;;;;;;5.07;3.30;;;17.10;93.60;;;;;;5096344;28;20035;-94
2021/06/06 23:50:30;;;;;;;3.58;2.97;;;17.10;93.80;;;;;;5093867;28;20036;-94
2021/06/06 23:52:56;;;;;;;;;;;17.10;93.70;;;;;;5095476;28;20464;-96
2021/06/06 23:55:27;;;;;;;4.43;3.35;;;17.10;93.70;;;;;;5079041;28;19912;-96
2021/06/06 23:57:53;;;;;;;3.70;3.22;;;17.20;93.70;;;;;;5097017;28;20024;-96
